Terminal Aerodrome Forecast
Issued by NWS Amarillo, TX

Home | Current Version | Previous Version | Text Only | Print | Product List | Glossary On
Versions: 1 2 3 4 5 6 7 8 9 10 11 12 13 14 15 16 17 18 19 20 21 22 23 24 25 26 27 28 29
597
FTUS44 KAMA 161915 AAB
TAFAMA
TAF AMD
KAMA 161915Z 1619/1718 31014KT P6SM BKN025
     FM162100 31013KT P6SM SCT035 BKN100
     FM170100 33008KT P6SM BKN050 BKN200
     FM170600 31009KT P6SM SCT035 BKN060=

USA.gov is the U.S. government's official web portal to all federal, state and local government web resources and services.